Time;durP1;ratioP1;P1;durP2;ratioP2;P2;SDS_P1;SDS_P2;PMS_P1;PMS_P2;Temp;Humidity;BMP_temperature;BMP_pressure;BME280_temperature;BME280_humidity;BME280_pressure;Samples;Min_cycle;Max_cycle;Signal;HPM_P1;HPM_P2
2023/04/06 00:00:58;;;;;;;7.47;4.35;;;;;;;;;;2104531;28;20032;-67
2023/04/06 00:02:17;;;;;;;8.68;4.93;;;;;;;;;;2105662;28;20028;-67
2023/04/06 00:03:36;;;;;;;9.43;4.78;;;;;;;;;;2107289;28;20024;-66
2023/04/06 00:04:55;;;;;;;4.65;4.25;;;;;;;;;;2105570;28;20488;-67
2023/04/06 00:06:14;;;;;;;4.95;4.45;;;;;;;;;;2105897;28;20451;-66
2023/04/06 00:07:33;;;;;;;7.93;5.00;;;;;;;;;;2106310;28;20107;-66
2023/04/06 00:08:52;;;;;;;5.63;4.60;;;;;;;;;;2104866;28;20027;-67
2023/04/06 00:10:11;;;;;;;6.13;4.60;;;;;;;;;;2104428;28;20036;-67
2023/04/06 00:11:31;;;;;;;10.73;5.70;;;;;;;;;;2103776;28;20040;-67
2023/04/06 00:12:50;;;;;;;7.32;4.78;;;;;;;;;;2104385;28;20032;-67
2023/04/06 00:14:08;;;;;;;6.78;4.85;;;;;;;;;;2103054;28;20051;-66
2023/04/06 00:15:28;;;;;;;7.57;5.07;;;;;;;;;;2104070;28;20028;-67
2023/04/06 00:16:46;;;;;;;5.93;4.53;;;;;;;;;;2103613;28;20849;-67
2023/04/06 00:18:05;;;;;;;6.70;4.75;;;;;;;;;;2104903;28;20024;-65
2023/04/06 00:19:24;;;;;;;7.15;4.55;;;;;;;;;;2105330;28;20024;-67
2023/04/06 00:20:43;;;;;;;5.75;4.88;;;;;;;;;;2104479;28;20438;-67
2023/04/06 00:22:02;;;;;;;8.20;4.57;;;;;;;;;;2104784;28;20468;-67
2023/04/06 00:23:21;;;;;;;6.43;4.72;;;;;;;;;;2104321;28;20518;-67
2023/04/06 00:24:39;;;;;;;9.43;4.90;;;;;;;;;;2104507;28;20484;-67
2023/04/06 00:25:58;;;;;;;8.45;4.82;;;;;;;;;;2106320;28;20500;-65
2023/04/06 00:27:17;;;;;;;6.38;4.43;;;;;;;;;;2105268;28;20051;-67
2023/04/06 00:28:37;;;;;;;5.78;5.03;;;;;;;;;;2103166;28;20039;-65
2023/04/06 00:29:55;;;;;;;7.22;4.80;;;;;;;;;;2105951;28;20019;-67
2023/04/06 00:31:14;;;;;;;7.15;4.65;;;;;;;;;;2105479;28;20489;-66
2023/04/06 00:32:34;;;;;;;9.82;4.72;;;;;;;;;;2104615;28;20122;-65
2023/04/06 00:33:53;;;;;;;5.55;4.13;;;;;;;;;;2106924;28;20107;-66
2023/04/06 00:35:12;;;;;;;6.90;4.90;;;;;;;;;;2104387;28;20039;-66
2023/04/06 00:36:31;;;;;;;5.25;4.53;;;;;;;;;;2104609;28;20384;-67
2023/04/06 00:37:50;;;;;;;8.38;4.93;;;;;;;;;;2105588;28;20024;-68
2023/04/06 00:39:09;;;;;;;6.85;4.65;;;;;;;;;;2104481;28;20040;-64
2023/04/06 00:40:28;;;;;;;6.95;4.90;;;;;;;;;;2105164;28;20016;-65
2023/04/06 00:41:50;;;;;;;7.90;4.28;;;;;;;;;;2105460;28;20118;-67
2023/04/06 00:43:11;;;;;;;7.15;4.68;;;;;;;;;;2104558;28;20488;-66
2023/04/06 00:44:31;;;;;;;6.85;4.50;;;;;;;;;;2105299;28;20548;-65
2023/04/06 00:45:50;;;;;;;9.15;5.30;;;;;;;;;;2103119;28;20114;-66
2023/04/06 00:47:10;;;;;;;7.90;4.75;;;;;;;;;;2105196;28;20570;-66
2023/04/06 00:48:30;;;;;;;7.07;4.68;;;;;;;;;;2105717;28;20314;-65
2023/04/06 00:49:49;;;;;;;6.40;4.75;;;;;;;;;;2105099;28;20028;-66
2023/04/06 00:51:08;;;;;;;5.15;4.63;;;;;;;;;;2105362;28;21279;-65
2023/04/06 00:52:27;;;;;;;9.07;4.95;;;;;;;;;;2102590;28;20036;-65
2023/04/06 00:53:46;;;;;;;4.97;4.43;;;;;;;;;;2104378;28;21342;-65
2023/04/06 00:55:05;;;;;;;6.68;4.45;;;;;;;;;;2105778;28;20028;-65
2023/04/06 00:56:26;;;;;;;4.82;4.32;;;;;;;;;;2104167;28;20024;-66
2023/04/06 00:57:44;;;;;;;6.28;5.00;;;;;;;;;;2104144;28;20396;-66
2023/04/06 00:59:03;;;;;;;8.90;4.63;;;;;;;;;;2104113;28;20040;-66
2023/04/06 01:00:22;;;;;;;7.97;4.95;;;;;;;;;;2104633;28;20091;-65
2023/04/06 01:01:41;;;;;;;10.43;4.70;;;;;;;;;;2103008;28;20024;-66
2023/04/06 01:03:00;;;;;;;6.93;4.80;;;;;;;;;;2105883;28;20028;-65
2023/04/06 01:04:22;;;;;;;6.15;4.45;;;;;;;;;;2103858;28;20024;-65
2023/04/06 01:05:42;;;;;;;4.97;4.30;;;;;;;;;;2103513;28;20504;-65
2023/04/06 01:07:01;;;;;;;7.57;4.72;;;;;;;;;;2108348;28;20040;-65
2023/04/06 01:08:20;;;;;;;5.10;4.60;;;;;;;;;;2106243;28;20032;-65
2023/04/06 01:09:41;;;;;;;5.18;4.38;;;;;;;;;;2105950;28;20032;-66
2023/04/06 01:11:00;;;;;;;7.20;4.68;;;;;;;;;;2105007;28;20032;-65
2023/04/06 01:12:19;;;;;;;7.05;4.80;;;;;;;;;;2106506;28;20036;-66
2023/04/06 01:13:38;;;;;;;8.02;4.55;;;;;;;;;;2104209;28;20032;-68
2023/04/06 01:14:57;;;;;;;7.75;4.15;;;;;;;;;;2105137;28;20025;-65
2023/04/06 01:16:16;;;;;;;4.68;4.28;;;;;;;;;;2106416;28;20891;-65
2023/04/06 01:17:35;;;;;;;5.20;4.53;;;;;;;;;;2104579;28;20032;-66
2023/04/06 01:18:54;;;;;;;6.00;4.50;;;;;;;;;;2106827;28;20446;-66
2023/04/06 01:20:14;;;;;;;5.32;4.13;;;;;;;;;;2105277;28;20032;-66
2023/04/06 01:21:33;;;;;;;7.40;4.93;;;;;;;;;;2104811;28;20028;-66
2023/04/06 01:22:51;;;;;;;6.90;4.47;;;;;;;;;;2104945;28;20484;-66
2023/04/06 01:24:11;;;;;;;6.85;4.57;;;;;;;;;;2105972;28;20032;-66
2023/04/06 01:25:29;;;;;;;6.05;4.40;;;;;;;;;;2105726;28;20020;-68
2023/04/06 01:26:48;;;;;;;5.35;4.10;;;;;;;;;;2105984;28;20056;-66
2023/04/06 01:28:07;;;;;;;5.13;4.13;;;;;;;;;;2104553;28;20135;-66
2023/04/06 01:29:26;;;;;;;6.78;4.63;;;;;;;;;;2106561;28;20051;-67
2023/04/06 01:30:45;;;;;;;7.68;4.95;;;;;;;;;;2106332;28;20500;-66
2023/04/06 01:32:04;;;;;;;6.63;4.85;;;;;;;;;;2104615;28;20028;-66
2023/04/06 01:33:23;;;;;;;5.80;4.63;;;;;;;;;;2106642;28;20107;-67
2023/04/06 01:34:42;;;;;;;8.82;4.72;;;;;;;;;;2101590;28;20032;-67
2023/04/06 01:36:01;;;;;;;7.55;4.70;;;;;;;;;;2102839;28;20047;-66
2023/04/06 01:37:20;;;;;;;9.80;4.85;;;;;;;;;;2104647;28;20032;-66
2023/04/06 01:38:39;;;;;;;11.48;4.82;;;;;;;;;;2104795;28;20493;-68
2023/04/06 01:39:58;;;;;;;7.00;4.90;;;;;;;;;;2105284;28;20036;-66
2023/04/06 01:41:17;;;;;;;7.00;5.20;;;;;;;;;;2095883;28;20024;-66
2023/04/06 01:42:36;;;;;;;7.18;4.85;;;;;;;;;;2103629;28;20028;-66
2023/04/06 01:43:55;;;;;;;5.28;4.78;;;;;;;;;;2106002;28;20154;-71
2023/04/06 01:45:14;;;;;;;9.48;5.35;;;;;;;;;;2109170;28;20032;-66
2023/04/06 01:46:33;;;;;;;7.38;5.03;;;;;;;;;;2106549;28;20119;-66
2023/04/06 01:47:52;;;;;;;8.65;5.03;;;;;;;;;;2103930;28;20435;-66
2023/04/06 01:49:11;;;;;;;8.23;5.10;;;;;;;;;;2105327;28;20039;-66
2023/04/06 01:50:31;;;;;;;7.47;5.20;;;;;;;;;;2106504;28;20032;-66
2023/04/06 01:51:50;;;;;;;12.65;5.60;;;;;;;;;;2105645;28;20028;-66
2023/04/06 01:53:09;;;;;;;6.68;5.97;;;;;;;;;;2105705;28;20032;-66
2023/04/06 01:54:28;;;;;;;7.72;5.15;;;;;;;;;;2103898;28;20111;-66
2023/04/06 01:55:47;;;;;;;7.38;5.30;;;;;;;;;;2105953;28;20028;-66
2023/04/06 01:57:06;;;;;;;7.75;4.97;;;;;;;;;;2105043;28;20052;-66
2023/04/06 01:58:25;;;;;;;8.48;5.93;;;;;;;;;;2106854;28;20028;-66
2023/04/06 01:59:43;;;;;;;9.65;5.72;;;;;;;;;;2102248;28;20036;-66
2023/04/06 02:01:03;;;;;;;6.03;5.40;;;;;;;;;;2105044;28;20118;-66
2023/04/06 02:02:21;;;;;;;8.02;5.40;;;;;;;;;;2107430;28;20103;-66
2023/04/06 02:03:41;;;;;;;10.80;5.55;;;;;;;;;;2106335;28;20024;-66
2023/04/06 02:05:00;;;;;;;11.13;5.28;;;;;;;;;;2107771;28;20032;-67
2023/04/06 02:06:19;;;;;;;12.57;5.70;;;;;;;;;;2106920;28;20051;-66
2023/04/06 02:07:38;;;;;;;12.95;5.82;;;;;;;;;;2106134;28;20095;-66
2023/04/06 02:08:57;;;;;;;9.73;6.07;;;;;;;;;;2106318;28;20028;-66
2023/04/06 02:10:16;;;;;;;8.95;5.65;;;;;;;;;;2107615;28;20020;-66
2023/04/06 02:11:35;;;;;;;9.32;5.50;;;;;;;;;;2105454;28;20036;-66
2023/04/06 02:12:54;;;;;;;12.52;6.13;;;;;;;;;;2106471;28;20052;-66
2023/04/06 02:14:13;;;;;;;7.82;5.32;;;;;;;;;;2104409;28;20028;-66
2023/04/06 02:15:32;;;;;;;9.55;5.32;;;;;;;;;;2105593;28;20046;-66
2023/04/06 02:16:51;;;;;;;8.55;5.75;;;;;;;;;;2106475;28;20020;-66
2023/04/06 02:18:10;;;;;;;11.60;5.95;;;;;;;;;;2107944;28;20016;-66
2023/04/06 02:19:29;;;;;;;9.55;5.35;;;;;;;;;;2106194;28;20028;-66
2023/04/06 02:20:48;;;;;;;6.57;5.40;;;;;;;;;;2106432;28;20020;-66
2023/04/06 02:22:07;;;;;;;12.90;5.43;;;;;;;;;;2104954;28;20036;-66
2023/04/06 02:23:26;;;;;;;11.13;6.20;;;;;;;;;;2108275;28;20017;-66
2023/04/06 02:24:46;;;;;;;11.32;6.07;;;;;;;;;;2107546;28;20039;-66
2023/04/06 02:26:05;;;;;;;7.97;5.35;;;;;;;;;;2106577;28;20020;-66
2023/04/06 02:27:24;;;;;;;9.23;5.88;;;;;;;;;;2107323;28;20399;-66
2023/04/06 02:28:43;;;;;;;6.15;5.55;;;;;;;;;;2105477;28;20036;-66
2023/04/06 02:30:03;;;;;;;11.80;5.45;;;;;;;;;;2108358;28;20071;-66
2023/04/06 02:31:22;;;;;;;6.35;5.60;;;;;;;;;;2106762;28;20040;-66
2023/04/06 02:32:40;;;;;;;9.07;5.82;;;;;;;;;;2105123;28;20116;-66
2023/04/06 02:33:59;;;;;;;8.23;5.63;;;;;;;;;;2104409;28;20493;-66
2023/04/06 02:35:18;;;;;;;8.80;5.35;;;;;;;;;;2106650;28;20118;-66
2023/04/06 02:36:37;;;;;;;9.95;5.22;;;;;;;;;;2106746;28;20123;-66
2023/04/06 02:37:56;;;;;;;9.57;5.80;;;;;;;;;;2103268;28;20451;-66
2023/04/06 02:39:15;;;;;;;10.38;5.72;;;;;;;;;;2104314;28;20376;-66
2023/04/06 02:40:34;;;;;;;8.32;5.63;;;;;;;;;;2106017;28;20477;-66
2023/04/06 02:41:53;;;;;;;11.80;6.13;;;;;;;;;;2107733;28;20053;-66
2023/04/06 02:43:12;;;;;;;6.40;5.30;;;;;;;;;;2108676;28;20024;-66
2023/04/06 02:44:31;;;;;;;10.68;5.32;;;;;;;;;;2108317;28;20507;-66
2023/04/06 02:45:50;;;;;;;5.72;5.15;;;;;;;;;;2108237;28;20480;-66
2023/04/06 02:47:09;;;;;;;10.18;5.20;;;;;;;;;;2109255;28;20156;-66
2023/04/06 02:48:28;;;;;;;6.55;5.45;;;;;;;;;;2109255;28;20057;-66
2023/04/06 02:49:47;;;;;;;5.70;5.10;;;;;;;;;;2106658;28;20028;-66
2023/04/06 02:51:06;;;;;;;7.97;5.18;;;;;;;;;;2106821;28;20028;-67
2023/04/06 02:52:25;;;;;;;10.60;5.78;;;;;;;;;;2107751;28;20388;-66
2023/04/06 02:53:44;;;;;;;6.97;5.00;;;;;;;;;;2108252;28;20028;-66
2023/04/06 02:55:03;;;;;;;12.68;7.18;;;;;;;;;;2108099;28;20040;-66
2023/04/06 02:56:22;;;;;;;6.90;5.20;;;;;;;;;;2108774;28;20027;-66
2023/04/06 02:57:41;;;;;;;8.52;6.00;;;;;;;;;;2108701;28;20032;-66
2023/04/06 02:59:00;;;;;;;8.55;5.28;;;;;;;;;;2107372;28;20033;-66
2023/04/06 03:00:19;;;;;;;6.43;5.18;;;;;;;;;;2109591;28;20044;-66
2023/04/06 03:01:38;;;;;;;6.25;5.60;;;;;;;;;;2109118;28;20027;-66
2023/04/06 03:02:57;;;;;;;9.77;5.43;;;;;;;;;;2107825;28;20016;-66
2023/04/06 03:04:16;;;;;;;7.55;5.30;;;;;;;;;;2107010;28;20051;-66
2023/04/06 03:05:35;;;;;;;5.72;5.13;;;;;;;;;;2108318;28;20500;-66
2023/04/06 03:06:54;;;;;;;9.68;5.20;;;;;;;;;;2108604;28;20063;-66
2023/04/06 03:08:13;;;;;;;8.75;5.35;;;;;;;;;;2107694;28;20115;-66
2023/04/06 03:09:33;;;;;;;7.55;5.43;;;;;;;;;;2108971;28;20023;-66
2023/04/06 03:10:52;;;;;;;9.05;5.40;;;;;;;;;;2108583;28;20020;-66
2023/04/06 03:12:11;;;;;;;6.15;5.10;;;;;;;;;;2107724;28;20032;-66
2023/04/06 03:13:30;;;;;;;5.40;4.63;;;;;;;;;;2107158;28;20046;-66
2023/04/06 03:14:49;;;;;;;6.90;5.28;;;;;;;;;;2106008;28;20028;-66
2023/04/06 03:16:08;;;;;;;9.80;5.15;;;;;;;;;;2108303;28;20032;-66
2023/04/06 03:17:27;;;;;;;7.72;5.18;;;;;;;;;;2107486;28;20509;-66
2023/04/06 03:18:46;;;;;;;8.00;5.10;;;;;;;;;;2108132;28;20504;-66
2023/04/06 03:20:06;;;;;;;7.78;5.15;;;;;;;;;;2107728;28;20032;-66
2023/04/06 03:21:25;;;;;;;6.75;5.65;;;;;;;;;;2108613;28;20118;-66
2023/04/06 03:22:43;;;;;;;5.82;5.03;;;;;;;;;;2108251;28;20024;-66
2023/04/06 03:24:03;;;;;;;9.73;5.20;;;;;;;;;;2108016;28;20110;-66
2023/04/06 03:25:21;;;;;;;8.13;5.15;;;;;;;;;;2108032;28;20039;-66
2023/04/06 03:26:40;;;;;;;8.13;5.38;;;;;;;;;;2108564;28;20447;-66
2023/04/06 03:27:59;;;;;;;5.07;4.60;;;;;;;;;;2106664;28;20039;-66
2023/04/06 03:29:18;;;;;;;7.55;5.25;;;;;;;;;;2107308;28;20027;-66
2023/04/06 03:30:37;;;;;;;7.97;5.28;;;;;;;;;;2107225;28;20036;-66
2023/04/06 03:31:56;;;;;;;8.23;5.68;;;;;;;;;;2107343;28;20024;-66
2023/04/06 03:33:15;;;;;;;7.53;5.43;;;;;;;;;;2108000;28;20488;-66
2023/04/06 03:34:34;;;;;;;10.57;6.10;;;;;;;;;;2105035;28;20044;-66
2023/04/06 03:35:53;;;;;;;8.80;5.00;;;;;;;;;;2099133;28;20104;-66
2023/04/06 03:37:12;;;;;;;7.03;5.13;;;;;;;;;;2104376;28;20384;-66
2023/04/06 03:38:31;;;;;;;7.28;5.07;;;;;;;;;;2108599;28;20063;-66
2023/04/06 03:39:50;;;;;;;6.05;4.90;;;;;;;;;;2108348;28;20055;-66
2023/04/06 03:41:09;;;;;;;10.45;5.38;;;;;;;;;;2108650;28;20028;-66
2023/04/06 03:42:28;;;;;;;6.82;5.53;;;;;;;;;;2109195;28;20179;-66
2023/04/06 03:43:47;;;;;;;9.52;5.28;;;;;;;;;;2107566;28;20552;-66
2023/04/06 03:45:06;;;;;;;8.52;5.35;;;;;;;;;;2108733;28;20032;-69
2023/04/06 03:46:26;;;;;;;6.55;5.45;;;;;;;;;;2106084;28;20111;-66
2023/04/06 03:47:45;;;;;;;7.00;5.40;;;;;;;;;;2107436;28;20019;-66
2023/04/06 03:49:04;;;;;;;7.35;5.57;;;;;;;;;;2108073;28;20416;-66
2023/04/06 03:50:23;;;;;;;15.30;6.07;;;;;;;;;;2108703;28;20020;-71
2023/04/06 03:51:43;;;;;;;10.05;5.57;;;;;;;;;;2108128;28;20039;-65
2023/04/06 03:53:02;;;;;;;7.57;5.43;;;;;;;;;;2107747;28;20036;-67
2023/04/06 03:54:21;;;;;;;9.85;5.45;;;;;;;;;;2106635;28;20035;-66
2023/04/06 03:55:41;;;;;;;7.60;5.38;;;;;;;;;;2106195;28;20416;-66
2023/04/06 03:57:00;;;;;;;7.30;5.75;;;;;;;;;;2108445;28;20027;-66
2023/04/06 03:58:19;;;;;;;8.77;5.45;;;;;;;;;;2108849;28;20024;-65
2023/04/06 03:59:38;;;;;;;5.63;5.13;;;;;;;;;;2106286;28;20028;-68
2023/04/06 04:00:57;;;;;;;6.20;5.45;;;;;;;;;;2108896;28;20031;-66
2023/04/06 04:02:16;;;;;;;7.72;5.55;;;;;;;;;;2110157;28;20024;-66
2023/04/06 04:03:35;;;;;;;7.40;5.32;;;;;;;;;;2106507;28;21218;-65
2023/04/06 04:04:54;;;;;;;6.88;5.72;;;;;;;;;;2106106;28;20056;-66
2023/04/06 04:06:13;;;;;;;7.20;5.70;;;;;;;;;;2106803;28;20028;-67
2023/04/06 04:07:32;;;;;;;8.25;5.55;;;;;;;;;;2106241;28;20051;-67
2023/04/06 04:08:51;;;;;;;7.93;5.53;;;;;;;;;;2108014;28;20036;-65
2023/04/06 04:10:10;;;;;;;9.05;5.35;;;;;;;;;;2108490;28;20079;-66
2023/04/06 04:11:29;;;;;;;5.95;5.35;;;;;;;;;;2108138;28;20028;-68
2023/04/06 04:12:47;;;;;;;8.88;5.72;;;;;;;;;;2106314;28;20036;-67
2023/04/06 04:14:06;;;;;;;7.40;5.45;;;;;;;;;;2107167;28;20040;-66
2023/04/06 04:15:25;;;;;;;8.63;5.03;;;;;;;;;;2106122;28;20047;-68
2023/04/06 04:16:44;;;;;;;6.93;5.63;;;;;;;;;;2107439;28;20055;-67
2023/04/06 04:18:03;;;;;;;8.20;5.10;;;;;;;;;;2108921;28;20464;-67
2023/04/06 04:19:22;;;;;;;11.30;5.40;;;;;;;;;;2108718;28;20027;-67
2023/04/06 04:20:41;;;;;;;7.20;5.10;;;;;;;;;;2109568;28;20032;-67
2023/04/06 04:22:00;;;;;;;7.30;5.18;;;;;;;;;;2107676;28;20012;-66
2023/04/06 04:23:19;;;;;;;8.35;5.72;;;;;;;;;;2108147;28;20142;-68
2023/04/06 04:24:38;;;;;;;7.07;5.38;;;;;;;;;;2107119;28;20118;-66
2023/04/06 04:25:57;;;;;;;9.48;5.45;;;;;;;;;;2108853;28;20107;-66
2023/04/06 04:27:16;;;;;;;9.80;5.43;;;;;;;;;;2106171;28;20067;-66
2023/04/06 04:28:35;;;;;;;9.25;5.50;;;;;;;;;;2107704;28;20031;-66
2023/04/06 04:29:54;;;;;;;6.05;5.32;;;;;;;;;;2106435;28;20039;-67
2023/04/06 04:31:13;;;;;;;8.80;5.60;;;;;;;;;;2107835;28;20628;-67
2023/04/06 04:32:32;;;;;;;7.63;5.25;;;;;;;;;;2110375;28;20040;-66
2023/04/06 04:33:51;;;;;;;5.78;5.20;;;;;;;;;;2108189;28;20440;-66
2023/04/06 04:35:09;;;;;;;8.18;5.57;;;;;;;;;;2103361;28;20399;-66
2023/04/06 04:36:28;;;;;;;7.70;5.38;;;;;;;;;;2105311;28;20024;-66
2023/04/06 04:37:47;;;;;;;6.38;5.05;;;;;;;;;;2105600;28;20028;-66
2023/04/06 04:39:06;;;;;;;8.05;5.45;;;;;;;;;;2107863;28;20135;-65
2023/04/06 04:40:25;;;;;;;5.53;4.97;;;;;;;;;;2108519;28;20045;-66
2023/04/06 04:41:44;;;;;;;7.43;5.75;;;;;;;;;;2108149;28;20115;-66
2023/04/06 04:43:03;;;;;;;6.68;5.07;;;;;;;;;;2106634;28;20047;-65
2023/04/06 04:44:22;;;;;;;6.72;5.18;;;;;;;;;;2105591;28;20020;-65
2023/04/06 04:45:41;;;;;;;7.15;5.10;;;;;;;;;;2109624;28;20024;-65
2023/04/06 04:47:00;;;;;;;6.55;5.63;;;;;;;;;;2104588;28;20028;-66
2023/04/06 04:48:19;;;;;;;10.50;5.35;;;;;;;;;;2103110;28;20032;-66
2023/04/06 04:49:38;;;;;;;9.73;5.80;;;;;;;;;;2104665;28;20036;-66
2023/04/06 04:50:57;;;;;;;9.35;5.22;;;;;;;;;;2104085;28;20027;-66
2023/04/06 04:52:16;;;;;;;7.00;5.82;;;;;;;;;;2105746;28;20031;-66
2023/04/06 04:53:35;;;;;;;7.78;5.40;;;;;;;;;;2105780;28;20025;-66
2023/04/06 04:54:54;;;;;;;6.05;4.85;;;;;;;;;;2104468;28;20586;-66
2023/04/06 04:56:13;;;;;;;6.10;4.97;;;;;;;;;;2108160;28;20024;-66
2023/04/06 04:57:32;;;;;;;5.82;5.25;;;;;;;;;;2107631;28;20024;-66
2023/04/06 04:58:51;;;;;;;7.28;5.55;;;;;;;;;;2108450;28;20028;-66
2023/04/06 05:00:10;;;;;;;6.72;5.40;;;;;;;;;;2106719;28;20020;-66
2023/04/06 05:01:29;;;;;;;7.03;4.82;;;;;;;;;;2103294;28;20028;-66
2023/04/06 05:02:48;;;;;;;5.53;4.88;;;;;;;;;;2104709;28;20023;-65
2023/04/06 05:04:07;;;;;;;5.93;4.75;;;;;;;;;;2103976;28;20024;-66
2023/04/06 05:05:26;;;;;;;6.90;4.80;;;;;;;;;;2106269;28;20028;-66
2023/04/06 05:06:45;;;;;;;6.68;5.25;;;;;;;;;;2106642;28;20488;-67
2023/04/06 05:08:04;;;;;;;8.52;4.70;;;;;;;;;;2106192;28;20024;-66
2023/04/06 05:09:23;;;;;;;9.32;5.82;;;;;;;;;;2104101;28;20024;-66
2023/04/06 05:10:42;;;;;;;5.38;4.72;;;;;;;;;;2104138;28;20039;-66
2023/04/06 05:12:02;;;;;;;6.70;5.13;;;;;;;;;;2105270;28;20032;-70
2023/04/06 05:13:21;;;;;;;5.72;5.15;;;;;;;;;;2106841;28;20024;-66
2023/04/06 05:14:40;;;;;;;5.38;4.85;;;;;;;;;;2108192;28;20519;-66
2023/04/06 05:15:59;;;;;;;7.25;5.20;;;;;;;;;;2108445;28;20040;-65
2023/04/06 05:17:18;;;;;;;7.03;5.22;;;;;;;;;;2107618;28;20046;-66
2023/04/06 05:18:37;;;;;;;7.32;5.55;;;;;;;;;;2106819;28;20070;-67
2023/04/06 05:19:56;;;;;;;6.40;4.57;;;;;;;;;;2107757;28;20024;-66
2023/04/06 05:21:15;;;;;;;7.28;4.93;;;;;;;;;;2109419;28;20016;-67
2023/04/06 05:22:34;;;;;;;5.18;4.78;;;;;;;;;;2110512;28;20028;-66
2023/04/06 05:23:53;;;;;;;6.03;5.35;;;;;;;;;;2110819;28;20012;-66
2023/04/06 05:25:13;;;;;;;7.28;5.25;;;;;;;;;;2108380;28;20488;-66
2023/04/06 05:26:32;;;;;;;7.00;4.95;;;;;;;;;;2108661;28;20043;-66
2023/04/06 05:27:51;;;;;;;7.30;4.63;;;;;;;;;;2107227;28;20107;-66
2023/04/06 05:29:10;;;;;;;5.47;4.80;;;;;;;;;;2106810;28;20498;-67
2023/04/06 05:30:30;;;;;;;7.13;4.90;;;;;;;;;;2106631;28;20120;-67
2023/04/06 05:31:50;;;;;;;6.60;5.18;;;;;;;;;;2105904;28;20036;-66
2023/04/06 05:33:10;;;;;;;10.13;4.85;;;;;;;;;;2105350;28;20063;-66
2023/04/06 05:34:29;;;;;;;6.63;4.45;;;;;;;;;;2107900;28;20028;-66
2023/04/06 05:35:48;;;;;;;7.20;4.95;;;;;;;;;;2105943;28;20024;-67
2023/04/06 05:37:07;;;;;;;6.43;4.90;;;;;;;;;;2107698;28;20515;-67
2023/04/06 05:38:26;;;;;;;5.50;4.57;;;;;;;;;;2108015;28;20028;-67
2023/04/06 05:39:44;;;;;;;7.53;4.63;;;;;;;;;;2106781;28;20032;-67
2023/04/06 05:41:04;;;;;;;7.43;4.60;;;;;;;;;;2107628;28;20024;-67
2023/04/06 05:42:22;;;;;;;4.78;4.38;;;;;;;;;;2108403;28;20028;-67
2023/04/06 05:43:41;;;;;;;5.63;4.40;;;;;;;;;;2107943;28;20107;-67
2023/04/06 05:45:03;;;;;;;5.50;4.80;;;;;;;;;;2108713;28;20028;-70
2023/04/06 05:46:22;;;;;;;5.25;4.03;;;;;;;;;;2107869;28;20032;-66
2023/04/06 05:47:42;;;;;;;5.18;4.68;;;;;;;;;;2108075;28;20028;-66
2023/04/06 05:49:01;;;;;;;6.70;4.43;;;;;;;;;;2107443;28;20028;-65
2023/04/06 05:50:20;;;;;;;4.35;3.70;;;;;;;;;;2108627;28;20044;-67
2023/04/06 05:51:39;;;;;;;5.07;4.57;;;;;;;;;;2107303;28;20060;-66
2023/04/06 05:52:58;;;;;;;6.72;4.55;;;;;;;;;;2107417;28;20024;-66
2023/04/06 05:54:17;;;;;;;4.60;4.20;;;;;;;;;;2109844;28;20032;-66
2023/04/06 05:55:36;;;;;;;6.25;4.00;;;;;;;;;;2107957;28;20434;-66
2023/04/06 05:56:55;;;;;;;4.50;4.05;;;;;;;;;;2108069;28;20427;-65
2023/04/06 05:58:14;;;;;;;4.25;3.85;;;;;;;;;;2107244;28;20028;-66
2023/04/06 05:59:32;;;;;;;5.50;4.05;;;;;;;;;;2106966;28;20032;-66
2023/04/06 06:00:56;;;;;;;8.98;5.18;;;;;;;;;;2108080;28;20107;-67
2023/04/06 06:02:15;;;;;;;4.53;4.15;;;;;;;;;;2108343;28;20032;-66
2023/04/06 06:03:34;;;;;;;4.18;3.85;;;;;;;;;;2108339;28;20501;-66
2023/04/06 06:04:53;;;;;;;4.18;3.88;;;;;;;;;;2109752;28;20036;-66
2023/04/06 06:06:12;;;;;;;4.20;3.80;;;;;;;;;;2110225;28;20032;-66
2023/04/06 06:07:31;;;;;;;3.78;3.47;;;;;;;;;;2106082;28;20031;-66
2023/04/06 06:08:50;;;;;;;4.70;4.25;;;;;;;;;;2108508;28;20085;-66
2023/04/06 06:10:09;;;;;;;4.72;3.55;;;;;;;;;;2109103;28;20024;-65
2023/04/06 06:11:28;;;;;;;4.50;3.97;;;;;;;;;;2109856;28;20122;-66
2023/04/06 06:12:47;;;;;;;8.05;4.28;;;;;;;;;;2108476;28;20031;-67
2023/04/06 06:14:06;;;;;;;5.93;4.15;;;;;;;;;;2108485;28;20032;-66
2023/04/06 06:15:25;;;;;;;4.70;4.30;;;;;;;;;;2107851;28;20028;-65
2023/04/06 06:16:46;;;;;;;4.43;4.03;;;;;;;;;;2109046;28;20031;-67
2023/04/06 06:18:06;;;;;;;4.28;3.90;;;;;;;;;;2106401;28;20151;-67
2023/04/06 06:19:24;;;;;;;3.95;3.47;;;;;;;;;;2108107;28;20099;-67
2023/04/06 06:20:43;;;;;;;4.25;3.88;;;;;;;;;;2107996;28;20036;-68
2023/04/06 06:22:02;;;;;;;3.58;3.28;;;;;;;;;;2108718;28;20051;-67
2023/04/06 06:23:21;;;;;;;3.88;3.58;;;;;;;;;;2108382;28;20032;-69
2023/04/06 06:24:40;;;;;;;5.78;3.13;;;;;;;;;;2108367;28;20405;-67
2023/04/06 06:26:00;;;;;;;3.85;3.55;;;;;;;;;;2109913;28;20432;-71
2023/04/06 06:27:19;;;;;;;3.28;3.00;;;;;;;;;;2108724;28;20021;-68
2023/04/06 06:28:38;;;;;;;3.90;3.42;;;;;;;;;;2107117;28;20056;-68
2023/04/06 06:29:57;;;;;;;3.60;3.20;;;;;;;;;;2109784;28;20504;-66
2023/04/06 06:31:16;;;;;;;5.90;3.22;;;;;;;;;;2104107;28;20389;-66
2023/04/06 06:32:35;;;;;;;3.95;3.17;;;;;;;;;;2105628;28;20040;-66
2023/04/06 06:33:54;;;;;;;4.80;3.40;;;;;;;;;;2101803;28;20503;-66
2023/04/06 06:35:14;;;;;;;4.03;3.10;;;;;;;;;;2104642;28;20071;-67
2023/04/06 06:36:33;;;;;;;3.65;3.20;;;;;;;;;;2107301;28;20051;-69
2023/04/06 06:37:52;;;;;;;4.72;3.15;;;;;;;;;;2100531;28;20036;-67
2023/04/06 06:39:11;;;;;;;4.43;3.17;;;;;;;;;;2104927;28;20434;-67
2023/04/06 06:40:31;;;;;;;4.68;3.35;;;;;;;;;;2107101;28;20682;-68
2023/04/06 06:41:49;;;;;;;3.53;3.28;;;;;;;;;;2105948;28;20481;-66
2023/04/06 06:43:08;;;;;;;10.75;3.20;;;;;;;;;;2107472;28;20024;-67
2023/04/06 06:44:28;;;;;;;3.20;2.90;;;;;;;;;;2102935;28;20019;-67
2023/04/06 06:45:47;;;;;;;3.30;3.00;;;;;;;;;;2106457;28;20111;-67
2023/04/06 06:47:06;;;;;;;3.85;3.30;;;;;;;;;;2108012;28;20065;-67
2023/04/06 06:48:25;;;;;;;3.67;3.25;;;;;;;;;;2107728;28;20024;-67
2023/04/06 06:49:44;;;;;;;3.10;2.80;;;;;;;;;;2109454;28;20031;-66
2023/04/06 06:51:03;;;;;;;4.68;2.85;;;;;;;;;;2108118;28;20493;-67
2023/04/06 06:52:23;;;;;;;3.10;2.80;;;;;;;;;;2107455;28;20036;-67
2023/04/06 06:53:42;;;;;;;3.38;3.00;;;;;;;;;;2108023;28;20032;-66
2023/04/06 06:55:01;;;;;;;3.42;3.13;;;;;;;;;;2107862;28;20049;-69
2023/04/06 06:56:20;;;;;;;3.17;2.97;;;;;;;;;;2107480;28;20024;-66
2023/04/06 06:57:42;;;;;;;3.97;3.60;;;;;;;;;;2108159;28;21124;-66
2023/04/06 06:59:01;;;;;;;3.60;3.30;;;;;;;;;;2106551;28;20504;-67
2023/04/06 07:00:22;;;;;;;3.45;2.95;;;;;;;;;;2106304;28;20913;-66
2023/04/06 07:01:42;;;;;;;4.87;2.80;;;;;;;;;;2105788;28;20032;-66
2023/04/06 07:03:01;;;;;;;3.97;2.78;;;;;;;;;;2107274;28;20241;-67
2023/04/06 07:04:20;;;;;;;3.65;2.92;;;;;;;;;;2105944;28;20028;-67
2023/04/06 07:05:48;;;;;;;2.90;2.60;;;;;;;;;;2106988;28;20024;-67
2023/04/06 07:07:08;;;;;;;4.18;3.00;;;;;;;;;;2108064;28;20102;-66
2023/04/06 07:08:27;;;;;;;3.35;2.90;;;;;;;;;;2104637;28;20024;-66
2023/04/06 07:09:46;;;;;;;3.28;3.08;;;;;;;;;;2109205;28;20086;-65
2023/04/06 07:11:05;;;;;;;5.97;3.15;;;;;;;;;;2109608;28;20036;-67
2023/04/06 07:12:24;;;;;;;4.35;3.22;;;;;;;;;;2107886;28;20032;-68
2023/04/06 07:13:42;;;;;;;3.70;3.20;;;;;;;;;;2109186;28;20028;-67
2023/04/06 07:15:01;;;;;;;2.83;2.63;;;;;;;;;;2105606;28;20617;-68
2023/04/06 07:16:21;;;;;;;3.72;3.35;;;;;;;;;;2109007;28;20055;-68
2023/04/06 07:17:44;;;;;;;4.70;2.88;;;;;;;;;;2105702;28;20032;-67
2023/04/06 07:19:04;;;;;;;4.53;3.05;;;;;;;;;;2104992;28;20020;-68
2023/04/06 07:20:23;;;;;;;3.42;3.03;;;;;;;;;;2109462;28;20028;-68
2023/04/06 07:21:42;;;;;;;4.65;3.42;;;;;;;;;;2109487;28;20033;-69
2023/04/06 07:23:02;;;;;;;3.17;2.97;;;;;;;;;;2104325;28;20025;-68
2023/04/06 07:24:21;;;;;;;3.63;3.33;;;;;;;;;;2107651;28;20500;-69
2023/04/06 07:25:40;;;;;;;4.82;3.15;;;;;;;;;;2107557;28;20040;-67
2023/04/06 07:27:02;;;;;;;2.95;2.60;;;;;;;;;;2105093;28;20040;-67
2023/04/06 07:28:22;;;;;;;3.92;3.53;;;;;;;;;;2105523;28;20028;-67
2023/04/06 07:29:41;;;;;;;3.30;3.10;;;;;;;;;;2108047;28;20130;-67
2023/04/06 07:31:00;;;;;;;3.08;2.78;;;;;;;;;;2103439;28;20032;-67
2023/04/06 07:32:19;;;;;;;4.53;3.10;;;;;;;;;;2097419;28;20032;-66
2023/04/06 07:33:38;;;;;;;3.15;2.92;;;;;;;;;;2108576;28;20036;-66
2023/04/06 07:34:58;;;;;;;3.30;2.88;;;;;;;;;;2106967;28;20024;-66
2023/04/06 07:36:16;;;;;;;3.53;3.20;;;;;;;;;;2106496;28;20489;-66
2023/04/06 07:37:36;;;;;;;2.72;2.50;;;;;;;;;;2108144;28;20043;-66
2023/04/06 07:38:55;;;;;;;4.15;3.08;;;;;;;;;;2108002;28;20028;-66
2023/04/06 07:40:13;;;;;;;3.13;2.90;;;;;;;;;;2108137;28;20052;-66
2023/04/06 07:41:32;;;;;;;3.38;3.13;;;;;;;;;;2107800;28;20032;-66
2023/04/06 07:42:51;;;;;;;2.47;2.35;;;;;;;;;;2105316;28;20052;-66
2023/04/06 07:44:10;;;;;;;3.40;3.03;;;;;;;;;;2108367;28;20027;-66
2023/04/06 07:45:29;;;;;;;3.10;2.70;;;;;;;;;;2107218;28;20036;-66
2023/04/06 07:46:48;;;;;;;2.92;2.63;;;;;;;;;;2107037;28;20028;-66
2023/04/06 07:48:07;;;;;;;3.40;3.10;;;;;;;;;;2105853;28;20032;-67
2023/04/06 07:49:26;;;;;;;3.33;2.45;;;;;;;;;;2106252;28;20435;-66
2023/04/06 07:50:45;;;;;;;3.80;2.97;;;;;;;;;;2104369;28;20067;-66
2023/04/06 07:52:04;;;;;;;3.05;2.80;;;;;;;;;;2106690;28;20019;-66
2023/04/06 07:53:23;;;;;;;4.05;2.63;;;;;;;;;;2107789;28;20040;-67
2023/04/06 07:54:43;;;;;;;5.88;2.58;;;;;;;;;;2107823;28;20040;-66